sensor_id;sensor_type;location;lat;lon;timestamp;P1;durP1;ratioP1;P2;durP2;ratioP2
26702;SDS011;14316;51.074;3.704;2024-01-25T00:02:09;66.75;;;13.02;;
26702;SDS011;14316;51.074;3.704;2024-01-25T00:04:35;64.32;;;12.30;;
26702;SDS011;14316;51.074;3.704;2024-01-25T00:07:01;66.15;;;11.77;;
26702;SDS011;14316;51.074;3.704;2024-01-25T00:09:27;71.40;;;11.25;;
26702;SDS011;14316;51.074;3.704;2024-01-25T00:11:53;69.68;;;12.10;;
26702;SDS011;14316;51.074;3.704;2024-01-25T00:14:19;64.93;;;11.25;;
26702;SDS011;14316;51.074;3.704;2024-01-25T00:16:45;71.72;;;12.75;;
26702;SDS011;14316;51.074;3.704;2024-01-25T00:19:10;67.30;;;11.93;;
26702;SDS011;14316;51.074;3.704;2024-01-25T00:21:41;65.95;;;11.95;;
26702;SDS011;14316;51.074;3.704;2024-01-25T00:24:08;70.32;;;11.98;;
26702;SDS011;14316;51.074;3.704;2024-01-25T00:26:36;58.38;;;9.75;;
26702;SDS011;14316;51.074;3.704;2024-01-25T00:29:02;52.67;;;8.50;;
26702;SDS011;14316;51.074;3.704;2024-01-25T00:31:28;63.85;;;11.23;;
26702;SDS011;14316;51.074;3.704;2024-01-25T00:33:55;56.00;;;10.80;;
26702;SDS011;14316;51.074;3.704;2024-01-25T00:36:22;64.70;;;11.85;;
26702;SDS011;14316;51.074;3.704;2024-01-25T00:38:48;70.53;;;12.70;;
26702;SDS011;14316;51.074;3.704;2024-01-25T00:41:17;49.63;;;9.85;;
26702;SDS011;14316;51.074;3.704;2024-01-25T00:43:46;67.97;;;11.13;;
26702;SDS011;14316;51.074;3.704;2024-01-25T00:46:14;58.83;;;11.80;;
26702;SDS011;14316;51.074;3.704;2024-01-25T00:48:40;52.80;;;9.77;;
26702;SDS011;14316;51.074;3.704;2024-01-25T00:51:08;63.28;;;11.15;;
26702;SDS011;14316;51.074;3.704;2024-01-25T00:53:39;53.30;;;9.85;;
26702;SDS011;14316;51.074;3.704;2024-01-25T00:56:05;70.88;;;12.02;;
26702;SDS011;14316;51.074;3.704;2024-01-25T00:58:32;61.50;;;11.48;;
26702;SDS011;14316;51.074;3.704;2024-01-25T01:00:58;64.70;;;11.80;;
26702;SDS011;14316;51.074;3.704;2024-01-25T01:03:24;69.00;;;12.27;;
26702;SDS011;14316;51.074;3.704;2024-01-25T01:05:50;65.60;;;11.15;;
26702;SDS011;14316;51.074;3.704;2024-01-25T01:08:17;49.70;;;7.88;;
26702;SDS011;14316;51.074;3.704;2024-01-25T01:10:43;54.80;;;9.95;;
26702;SDS011;14316;51.074;3.704;2024-01-25T01:13:09;63.00;;;11.05;;
26702;SDS011;14316;51.074;3.704;2024-01-25T01:15:35;67.20;;;12.00;;
26702;SDS011;14316;51.074;3.704;2024-01-25T01:18:00;65.65;;;11.82;;
26702;SDS011;14316;51.074;3.704;2024-01-25T01:20:26;53.92;;;9.35;;
26702;SDS011;14316;51.074;3.704;2024-01-25T01:22:52;42.17;;;7.68;;
26702;SDS011;14316;51.074;3.704;2024-01-25T01:25:19;55.60;;;9.38;;
26702;SDS011;14316;51.074;3.704;2024-01-25T01:27:45;60.72;;;10.07;;
26702;SDS011;14316;51.074;3.704;2024-01-25T01:30:11;59.85;;;11.35;;
26702;SDS011;14316;51.074;3.704;2024-01-25T01:32:37;64.80;;;12.38;;
26702;SDS011;14316;51.074;3.704;2024-01-25T01:35:03;54.35;;;10.20;;
26702;SDS011;14316;51.074;3.704;2024-01-25T01:37:29;57.28;;;8.85;;
26702;SDS011;14316;51.074;3.704;2024-01-25T01:39:55;69.80;;;10.23;;
26702;SDS011;14316;51.074;3.704;2024-01-25T01:42:21;42.35;;;8.35;;
26702;SDS011;14316;51.074;3.704;2024-01-25T01:44:48;64.28;;;10.95;;
26702;SDS011;14316;51.074;3.704;2024-01-25T01:47:15;60.35;;;10.55;;
26702;SDS011;14316;51.074;3.704;2024-01-25T01:49:42;65.80;;;11.20;;
26702;SDS011;14316;51.074;3.704;2024-01-25T01:52:08;62.45;;;11.52;;
26702;SDS011;14316;51.074;3.704;2024-01-25T01:54:35;57.70;;;10.18;;
26702;SDS011;14316;51.074;3.704;2024-01-25T01:57:01;52.83;;;9.60;;
26702;SDS011;14316;51.074;3.704;2024-01-25T01:59:28;64.57;;;11.30;;
26702;SDS011;14316;51.074;3.704;2024-01-25T02:01:55;52.60;;;10.15;;
26702;SDS011;14316;51.074;3.704;2024-01-25T02:04:21;55.35;;;10.68;;
26702;SDS011;14316;51.074;3.704;2024-01-25T02:06:46;54.75;;;9.82;;
26702;SDS011;14316;51.074;3.704;2024-01-25T02:09:13;47.65;;;8.38;;
26702;SDS011;14316;51.074;3.704;2024-01-25T02:11:39;55.80;;;10.30;;
26702;SDS011;14316;51.074;3.704;2024-01-25T02:14:05;49.75;;;8.77;;
26702;SDS011;14316;51.074;3.704;2024-01-25T02:16:35;62.00;;;11.25;;
26702;SDS011;14316;51.074;3.704;2024-01-25T02:19:01;54.63;;;10.70;;
26702;SDS011;14316;51.074;3.704;2024-01-25T02:21:27;66.13;;;11.73;;
26702;SDS011;14316;51.074;3.704;2024-01-25T02:23:53;47.95;;;8.75;;
26702;SDS011;14316;51.074;3.704;2024-01-25T02:26:19;61.95;;;9.82;;
26702;SDS011;14316;51.074;3.704;2024-01-25T02:28:45;50.72;;;9.77;;
26702;SDS011;14316;51.074;3.704;2024-01-25T02:31:11;51.30;;;10.43;;
26702;SDS011;14316;51.074;3.704;2024-01-25T02:33:36;61.35;;;11.63;;
26702;SDS011;14316;51.074;3.704;2024-01-25T02:36:02;64.18;;;10.88;;
26702;SDS011;14316;51.074;3.704;2024-01-25T02:38:28;59.85;;;10.88;;
26702;SDS011;14316;51.074;3.704;2024-01-25T02:40:54;47.15;;;9.45;;
26702;SDS011;14316;51.074;3.704;2024-01-25T02:43:20;54.28;;;9.60;;
26702;SDS011;14316;51.074;3.704;2024-01-25T02:45:47;51.92;;;10.57;;
26702;SDS011;14316;51.074;3.704;2024-01-25T02:48:13;67.40;;;11.25;;
26702;SDS011;14316;51.074;3.704;2024-01-25T02:50:40;63.33;;;11.23;;
26702;SDS011;14316;51.074;3.704;2024-01-25T02:53:06;52.95;;;9.73;;
26702;SDS011;14316;51.074;3.704;2024-01-25T02:55:32;54.78;;;10.68;;
26702;SDS011;14316;51.074;3.704;2024-01-25T02:57:58;43.83;;;7.88;;
26702;SDS011;14316;51.074;3.704;2024-01-25T03:00:24;55.47;;;10.32;;
26702;SDS011;14316;51.074;3.704;2024-01-25T03:02:50;56.72;;;9.02;;
26702;SDS011;14316;51.074;3.704;2024-01-25T03:05:16;60.35;;;11.88;;
26702;SDS011;14316;51.074;3.704;2024-01-25T03:07:42;48.63;;;11.25;;
26702;SDS011;14316;51.074;3.704;2024-01-25T03:10:08;48.72;;;10.32;;
26702;SDS011;14316;51.074;3.704;2024-01-25T03:12:34;68.55;;;11.10;;
26702;SDS011;14316;51.074;3.704;2024-01-25T03:15:00;54.33;;;11.20;;
26702;SDS011;14316;51.074;3.704;2024-01-25T03:17:26;53.55;;;10.70;;
26702;SDS011;14316;51.074;3.704;2024-01-25T03:19:52;53.28;;;11.02;;
26702;SDS011;14316;51.074;3.704;2024-01-25T03:22:18;64.95;;;12.63;;
26702;SDS011;14316;51.074;3.704;2024-01-25T03:24:44;57.42;;;11.13;;
26702;SDS011;14316;51.074;3.704;2024-01-25T03:27:10;53.70;;;10.95;;
26702;SDS011;14316;51.074;3.704;2024-01-25T03:29:41;61.70;;;10.93;;
26702;SDS011;14316;51.074;3.704;2024-01-25T03:32:09;51.47;;;11.07;;
26702;SDS011;14316;51.074;3.704;2024-01-25T03:34:35;62.28;;;11.93;;
26702;SDS011;14316;51.074;3.704;2024-01-25T03:37:01;56.65;;;10.57;;
26702;SDS011;14316;51.074;3.704;2024-01-25T03:39:28;40.63;;;8.55;;
26702;SDS011;14316;51.074;3.704;2024-01-25T03:41:53;38.78;;;8.00;;
26702;SDS011;14316;51.074;3.704;2024-01-25T03:44:19;48.00;;;8.02;;
26702;SDS011;14316;51.074;3.704;2024-01-25T03:46:45;56.47;;;10.45;;
26702;SDS011;14316;51.074;3.704;2024-01-25T03:49:11;58.65;;;11.32;;
26702;SDS011;14316;51.074;3.704;2024-01-25T03:51:37;54.30;;;10.75;;
26702;SDS011;14316;51.074;3.704;2024-01-25T03:54:03;57.53;;;12.13;;
26702;SDS011;14316;51.074;3.704;2024-01-25T03:56:29;32.63;;;7.60;;
26702;SDS011;14316;51.074;3.704;2024-01-25T03:58:55;52.20;;;10.43;;
26702;SDS011;14316;51.074;3.704;2024-01-25T04:01:21;79.20;;;13.40;;
26702;SDS011;14316;51.074;3.704;2024-01-25T04:03:47;54.80;;;11.95;;
26702;SDS011;14316;51.074;3.704;2024-01-25T04:06:13;53.40;;;11.20;;
26702;SDS011;14316;51.074;3.704;2024-01-25T04:08:39;61.42;;;10.95;;
26702;SDS011;14316;51.074;3.704;2024-01-25T04:11:05;65.75;;;12.07;;
26702;SDS011;14316;51.074;3.704;2024-01-25T04:13:31;55.40;;;10.52;;
26702;SDS011;14316;51.074;3.704;2024-01-25T04:15:57;55.70;;;11.77;;
26702;SDS011;14316;51.074;3.704;2024-01-25T04:18:22;70.30;;;12.00;;
26702;SDS011;14316;51.074;3.704;2024-01-25T04:20:48;71.88;;;13.48;;
26702;SDS011;14316;51.074;3.704;2024-01-25T04:23:15;57.15;;;11.25;;
26702;SDS011;14316;51.074;3.704;2024-01-25T04:25:42;65.43;;;12.95;;
26702;SDS011;14316;51.074;3.704;2024-01-25T04:28:08;62.42;;;11.68;;
26702;SDS011;14316;51.074;3.704;2024-01-25T04:30:34;47.50;;;8.85;;
26702;SDS011;14316;51.074;3.704;2024-01-25T04:33:00;57.97;;;10.65;;
26702;SDS011;14316;51.074;3.704;2024-01-25T04:35:26;58.10;;;11.93;;
26702;SDS011;14316;51.074;3.704;2024-01-25T04:37:51;66.07;;;12.35;;
26702;SDS011;14316;51.074;3.704;2024-01-25T04:40:17;64.70;;;12.93;;
26702;SDS011;14316;51.074;3.704;2024-01-25T04:42:44;71.18;;;12.07;;
26702;SDS011;14316;51.074;3.704;2024-01-25T04:45:10;72.55;;;13.77;;
26702;SDS011;14316;51.074;3.704;2024-01-25T04:47:37;63.13;;;13.52;;
26702;SDS011;14316;51.074;3.704;2024-01-25T04:50:04;54.55;;;11.55;;
26702;SDS011;14316;51.074;3.704;2024-01-25T04:52:30;62.13;;;12.77;;
26702;SDS011;14316;51.074;3.704;2024-01-25T04:54:56;58.75;;;13.30;;
26702;SDS011;14316;51.074;3.704;2024-01-25T04:57:22;72.78;;;13.35;;
26702;SDS011;14316;51.074;3.704;2024-01-25T04:59:48;55.30;;;13.93;;
26702;SDS011;14316;51.074;3.704;2024-01-25T05:02:14;63.08;;;13.40;;
26702;SDS011;14316;51.074;3.704;2024-01-25T05:04:40;72.75;;;14.27;;
26702;SDS011;14316;51.074;3.704;2024-01-25T05:07:06;60.85;;;12.50;;
26702;SDS011;14316;51.074;3.704;2024-01-25T05:09:31;70.80;;;13.77;;
26702;SDS011;14316;51.074;3.704;2024-01-25T05:11:57;54.90;;;12.43;;
26702;SDS011;14316;51.074;3.704;2024-01-25T05:14:27;70.70;;;13.15;;
26702;SDS011;14316;51.074;3.704;2024-01-25T05:16:53;64.68;;;14.13;;
26702;SDS011;14316;51.074;3.704;2024-01-25T05:19:18;58.17;;;12.90;;
26702;SDS011;14316;51.074;3.704;2024-01-25T05:21:44;71.75;;;14.70;;
26702;SDS011;14316;51.074;3.704;2024-01-25T05:24:11;71.70;;;13.73;;
26702;SDS011;14316;51.074;3.704;2024-01-25T05:26:37;66.43;;;14.30;;
26702;SDS011;14316;51.074;3.704;2024-01-25T05:29:03;65.53;;;14.55;;
26702;SDS011;14316;51.074;3.704;2024-01-25T05:31:29;69.65;;;13.00;;
26702;SDS011;14316;51.074;3.704;2024-01-25T05:33:55;65.05;;;13.75;;
26702;SDS011;14316;51.074;3.704;2024-01-25T05:36:21;72.47;;;11.73;;
26702;SDS011;14316;51.074;3.704;2024-01-25T05:38:47;66.72;;;13.40;;
26702;SDS011;14316;51.074;3.704;2024-01-25T05:41:13;74.53;;;15.48;;
26702;SDS011;14316;51.074;3.704;2024-01-25T05:43:39;76.00;;;14.88;;
26702;SDS011;14316;51.074;3.704;2024-01-25T05:46:04;77.45;;;15.77;;
26702;SDS011;14316;51.074;3.704;2024-01-25T05:48:30;72.47;;;14.88;;
26702;SDS011;14316;51.074;3.704;2024-01-25T05:50:56;70.63;;;15.20;;
26702;SDS011;14316;51.074;3.704;2024-01-25T05:53:22;65.30;;;13.75;;
26702;SDS011;14316;51.074;3.704;2024-01-25T05:55:48;64.55;;;12.75;;
26702;SDS011;14316;51.074;3.704;2024-01-25T05:58:14;75.53;;;14.45;;
26702;SDS011;14316;51.074;3.704;2024-01-25T06:00:40;76.28;;;15.35;;
26702;SDS011;14316;51.074;3.704;2024-01-25T06:03:07;75.53;;;15.52;;
26702;SDS011;14316;51.074;3.704;2024-01-25T06:05:33;65.53;;;14.93;;
26702;SDS011;14316;51.074;3.704;2024-01-25T06:07:59;72.78;;;14.68;;
26702;SDS011;14316;51.074;3.704;2024-01-25T06:10:25;60.33;;;13.98;;
26702;SDS011;14316;51.074;3.704;2024-01-25T06:12:51;67.75;;;15.18;;
26702;SDS011;14316;51.074;3.704;2024-01-25T06:15:17;63.47;;;13.35;;
26702;SDS011;14316;51.074;3.704;2024-01-25T06:17:43;72.75;;;15.05;;
26702;SDS011;14316;51.074;3.704;2024-01-25T06:20:09;57.67;;;12.88;;
26702;SDS011;14316;51.074;3.704;2024-01-25T06:22:36;62.97;;;14.60;;
26702;SDS011;14316;51.074;3.704;2024-01-25T06:25:02;78.80;;;16.13;;
26702;SDS011;14316;51.074;3.704;2024-01-25T06:27:31;69.68;;;14.02;;
26702;SDS011;14316;51.074;3.704;2024-01-25T06:29:57;69.88;;;13.15;;
26702;SDS011;14316;51.074;3.704;2024-01-25T06:32:23;69.35;;;13.38;;
26702;SDS011;14316;51.074;3.704;2024-01-25T06:34:49;59.47;;;11.65;;
26702;SDS011;14316;51.074;3.704;2024-01-25T06:37:15;56.10;;;12.63;;
26702;SDS011;14316;51.074;3.704;2024-01-25T06:39:43;70.25;;;13.38;;
26702;SDS011;14316;51.074;3.704;2024-01-25T06:42:09;74.75;;;13.98;;
26702;SDS011;14316;51.074;3.704;2024-01-25T06:44:35;64.30;;;15.05;;
26702;SDS011;14316;51.074;3.704;2024-01-25T06:47:01;79.35;;;16.48;;
26702;SDS011;14316;51.074;3.704;2024-01-25T06:49:27;77.70;;;15.68;;
26702;SDS011;14316;51.074;3.704;2024-01-25T06:51:53;75.88;;;16.13;;
26702;SDS011;14316;51.074;3.704;2024-01-25T06:54:19;73.53;;;16.02;;
26702;SDS011;14316;51.074;3.704;2024-01-25T06:56:45;77.32;;;15.65;;
26702;SDS011;14316;51.074;3.704;2024-01-25T06:59:11;74.38;;;16.60;;
26702;SDS011;14316;51.074;3.704;2024-01-25T07:01:37;66.00;;;15.38;;
26702;SDS011;14316;51.074;3.704;2024-01-25T07:04:03;66.50;;;16.77;;
26702;SDS011;14316;51.074;3.704;2024-01-25T07:06:29;83.00;;;17.30;;
26702;SDS011;14316;51.074;3.704;2024-01-25T07:08:55;70.78;;;16.58;;
26702;SDS011;14316;51.074;3.704;2024-01-25T07:11:21;65.45;;;16.90;;
26702;SDS011;14316;51.074;3.704;2024-01-25T07:13:47;67.00;;;16.42;;
26702;SDS011;14316;51.074;3.704;2024-01-25T07:16:13;61.00;;;16.77;;
26702;SDS011;14316;51.074;3.704;2024-01-25T07:18:39;59.60;;;17.65;;
26702;SDS011;14316;51.074;3.704;2024-01-25T07:21:05;55.47;;;17.27;;
26702;SDS011;14316;51.074;3.704;2024-01-25T07:23:32;57.15;;;17.33;;
26702;SDS011;14316;51.074;3.704;2024-01-25T07:25:59;68.55;;;19.05;;
26702;SDS011;14316;51.074;3.704;2024-01-25T07:28:25;69.38;;;19.23;;
26702;SDS011;14316;51.074;3.704;2024-01-25T07:30:51;49.08;;;16.75;;
26702;SDS011;14316;51.074;3.704;2024-01-25T07:33:17;34.47;;;10.75;;
26702;SDS011;14316;51.074;3.704;2024-01-25T07:35:43;83.93;;;22.52;;
26702;SDS011;14316;51.074;3.704;2024-01-25T07:38:12;76.03;;;20.15;;
26702;SDS011;14316;51.074;3.704;2024-01-25T07:40:39;74.03;;;21.88;;
26702;SDS011;14316;51.074;3.704;2024-01-25T07:43:05;103.93;;;24.42;;
26702;SDS011;14316;51.074;3.704;2024-01-25T07:45:31;91.22;;;23.65;;
26702;SDS011;14316;51.074;3.704;2024-01-25T07:47:57;90.80;;;23.25;;
26702;SDS011;14316;51.074;3.704;2024-01-25T07:50:24;77.25;;;23.67;;
26702;SDS011;14316;51.074;3.704;2024-01-25T07:52:49;75.10;;;22.40;;
26702;SDS011;14316;51.074;3.704;2024-01-25T07:55:15;83.25;;;21.77;;
26702;SDS011;14316;51.074;3.704;2024-01-25T07:57:41;75.85;;;20.17;;
26702;SDS011;14316;51.074;3.704;2024-01-25T08:00:08;82.72;;;21.38;;
26702;SDS011;14316;51.074;3.704;2024-01-25T08:02:35;87.35;;;21.48;;
26702;SDS011;14316;51.074;3.704;2024-01-25T08:05:03;73.65;;;21.70;;
26702;SDS011;14316;51.074;3.704;2024-01-25T08:07:29;82.63;;;21.42;;
26702;SDS011;14316;51.074;3.704;2024-01-25T08:09:55;121.63;;;23.95;;
26702;SDS011;14316;51.074;3.704;2024-01-25T08:12:23;70.80;;;22.77;;
26702;SDS011;14316;51.074;3.704;2024-01-25T08:14:50;88.07;;;22.25;;
26702;SDS011;14316;51.074;3.704;2024-01-25T08:17:16;112.43;;;25.30;;
26702;SDS011;14316;51.074;3.704;2024-01-25T08:19:42;66.18;;;17.65;;
26702;SDS011;14316;51.074;3.704;2024-01-25T08:22:08;70.25;;;21.67;;
26702;SDS011;14316;51.074;3.704;2024-01-25T08:24:35;60.75;;;20.65;;
26702;SDS011;14316;51.074;3.704;2024-01-25T08:27:01;97.97;;;23.10;;
26702;SDS011;14316;51.074;3.704;2024-01-25T08:29:27;72.93;;;22.95;;
26702;SDS011;14316;51.074;3.704;2024-01-25T08:31:53;141.55;;;24.55;;
26702;SDS011;14316;51.074;3.704;2024-01-25T08:34:19;159.15;;;26.55;;
26702;SDS011;14316;51.074;3.704;2024-01-25T08:36:46;130.23;;;27.20;;
26702;SDS011;14316;51.074;3.704;2024-01-25T08:39:12;134.73;;;27.35;;
26702;SDS011;14316;51.074;3.704;2024-01-25T08:41:39;102.22;;;24.30;;
26702;SDS011;14316;51.074;3.704;2024-01-25T08:44:07;97.50;;;24.92;;
26702;SDS011;14316;51.074;3.704;2024-01-25T08:46:33;59.80;;;21.10;;
26702;SDS011;14316;51.074;3.704;2024-01-25T08:48:59;101.13;;;24.15;;
26702;SDS011;14316;51.074;3.704;2024-01-25T08:51:25;42.10;;;18.60;;
26702;SDS011;14316;51.074;3.704;2024-01-25T08:53:51;61.40;;;19.67;;
26702;SDS011;14316;51.074;3.704;2024-01-25T08:56:16;54.95;;;20.00;;
26702;SDS011;14316;51.074;3.704;2024-01-25T08:58:42;74.65;;;22.55;;
26702;SDS011;14316;51.074;3.704;2024-01-25T09:01:08;76.22;;;24.23;;
26702;SDS011;14316;51.074;3.704;2024-01-25T09:03:34;63.10;;;22.27;;
26702;SDS011;14316;51.074;3.704;2024-01-25T09:06:00;56.20;;;22.27;;
26702;SDS011;14316;51.074;3.704;2024-01-25T09:08:30;46.72;;;20.30;;
26702;SDS011;14316;51.074;3.704;2024-01-25T09:10:57;46.20;;;21.25;;
26702;SDS011;14316;51.074;3.704;2024-01-25T09:13:23;52.65;;;19.98;;
26702;SDS011;14316;51.074;3.704;2024-01-25T09:15:49;44.28;;;20.40;;
26702;SDS011;14316;51.074;3.704;2024-01-25T09:18:15;50.63;;;20.10;;
26702;SDS011;14316;51.074;3.704;2024-01-25T09:20:41;49.45;;;20.50;;
26702;SDS011;14316;51.074;3.704;2024-01-25T09:23:13;48.50;;;20.83;;
26702;SDS011;14316;51.074;3.704;2024-01-25T09:25:42;48.50;;;20.77;;
26702;SDS011;14316;51.074;3.704;2024-01-25T09:28:11;42.03;;;21.08;;
26702;SDS011;14316;51.074;3.704;2024-01-25T09:30:38;43.42;;;21.50;;
26702;SDS011;14316;51.074;3.704;2024-01-25T09:33:05;49.58;;;20.77;;
26702;SDS011;14316;51.074;3.704;2024-01-25T09:35:31;40.75;;;20.42;;
26702;SDS011;14316;51.074;3.704;2024-01-25T09:37:57;39.05;;;18.42;;
26702;SDS011;14316;51.074;3.704;2024-01-25T09:40:23;43.03;;;19.30;;
26702;SDS011;14316;51.074;3.704;2024-01-25T09:42:49;42.35;;;18.88;;
26702;SDS011;14316;51.074;3.704;2024-01-25T09:45:18;42.17;;;20.83;;
26702;SDS011;14316;51.074;3.704;2024-01-25T09:47:44;39.67;;;18.98;;
26702;SDS011;14316;51.074;3.704;2024-01-25T09:50:11;35.58;;;18.80;;
26702;SDS011;14316;51.074;3.704;2024-01-25T09:52:37;35.22;;;17.55;;
26702;SDS011;14316;51.074;3.704;2024-01-25T09:55:07;34.95;;;16.48;;
26702;SDS011;14316;51.074;3.704;2024-01-25T09:57:38;39.88;;;18.48;;
26702;SDS011;14316;51.074;3.704;2024-01-25T10:00:10;30.13;;;17.95;;
26702;SDS011;14316;51.074;3.704;2024-01-25T10:02:37;36.92;;;18.75;;
26702;SDS011;14316;51.074;3.704;2024-01-25T10:05:04;39.15;;;18.02;;
26702;SDS011;14316;51.074;3.704;2024-01-25T10:07:37;34.40;;;17.90;;
26702;SDS011;14316;51.074;3.704;2024-01-25T10:10:04;37.05;;;18.80;;
26702;SDS011;14316;51.074;3.704;2024-01-25T10:12:33;33.05;;;17.35;;
26702;SDS011;14316;51.074;3.704;2024-01-25T10:15:00;38.28;;;17.15;;
26702;SDS011;14316;51.074;3.704;2024-01-25T10:17:27;35.97;;;18.15;;
26702;SDS011;14316;51.074;3.704;2024-01-25T10:19:54;38.90;;;15.68;;
26702;SDS011;14316;51.074;3.704;2024-01-25T10:22:21;37.50;;;17.25;;
26702;SDS011;14316;51.074;3.704;2024-01-25T10:24:46;37.17;;;16.90;;
26702;SDS011;14316;51.074;3.704;2024-01-25T10:27:15;34.03;;;17.08;;
26702;SDS011;14316;51.074;3.704;2024-01-25T10:29:42;33.58;;;16.17;;
26702;SDS011;14316;51.074;3.704;2024-01-25T10:32:08;40.00;;;15.95;;
26702;SDS011;14316;51.074;3.704;2024-01-25T10:34:37;30.05;;;12.52;;
26702;SDS011;14316;51.074;3.704;2024-01-25T10:37:05;33.53;;;15.75;;
26702;SDS011;14316;51.074;3.704;2024-01-25T10:39:32;34.05;;;15.27;;
26702;SDS011;14316;51.074;3.704;2024-01-25T10:41:58;28.30;;;15.88;;
26702;SDS011;14316;51.074;3.704;2024-01-25T10:44:25;32.42;;;15.43;;
26702;SDS011;14316;51.074;3.704;2024-01-25T10:46:51;31.00;;;15.45;;
26702;SDS011;14316;51.074;3.704;2024-01-25T10:49:19;37.95;;;17.65;;
26702;SDS011;14316;51.074;3.704;2024-01-25T10:51:45;32.75;;;15.95;;
26702;SDS011;14316;51.074;3.704;2024-01-25T10:54:12;35.88;;;16.77;;
26702;SDS011;14316;51.074;3.704;2024-01-25T10:56:43;40.97;;;18.35;;
26702;SDS011;14316;51.074;3.704;2024-01-25T10:59:12;41.67;;;21.95;;
26702;SDS011;14316;51.074;3.704;2024-01-25T11:01:47;32.00;;;17.17;;
26702;SDS011;14316;51.074;3.704;2024-01-25T11:04:16;32.80;;;14.13;;
26702;SDS011;14316;51.074;3.704;2024-01-25T11:06:46;32.60;;;14.05;;
26702;SDS011;14316;51.074;3.704;2024-01-25T11:09:18;34.80;;;13.70;;
26702;SDS011;14316;51.074;3.704;2024-01-25T11:11:46;35.47;;;14.90;;
26702;SDS011;14316;51.074;3.704;2024-01-25T11:14:14;32.92;;;14.63;;
26702;SDS011;14316;51.074;3.704;2024-01-25T11:16:42;37.70;;;17.27;;
26702;SDS011;14316;51.074;3.704;2024-01-25T11:19:21;47.95;;;18.13;;
26702;SDS011;14316;51.074;3.704;2024-01-25T11:21:48;35.70;;;16.50;;
26702;SDS011;14316;51.074;3.704;2024-01-25T11:24:21;38.75;;;18.25;;
26702;SDS011;14316;51.074;3.704;2024-01-25T11:26:51;37.90;;;18.52;;
26702;SDS011;14316;51.074;3.704;2024-01-25T11:29:20;41.10;;;18.00;;
26702;SDS011;14316;51.074;3.704;2024-01-25T11:31:48;37.15;;;18.40;;
26702;SDS011;14316;51.074;3.704;2024-01-25T11:34:14;43.63;;;19.25;;
26702;SDS011;14316;51.074;3.704;2024-01-25T11:36:43;40.55;;;18.15;;
26702;SDS011;14316;51.074;3.704;2024-01-25T11:39:10;26.10;;;11.60;;
26702;SDS011;14316;51.074;3.704;2024-01-25T11:41:37;37.85;;;17.77;;
26702;SDS011;14316;51.074;3.704;2024-01-25T11:44:03;32.35;;;16.10;;
26702;SDS011;14316;51.074;3.704;2024-01-25T11:46:32;31.85;;;16.13;;
26702;SDS011;14316;51.074;3.704;2024-01-25T11:48:58;38.97;;;17.02;;
26702;SDS011;14316;51.074;3.704;2024-01-25T11:51:24;30.15;;;15.85;;
26702;SDS011;14316;51.074;3.704;2024-01-25T11:53:50;29.35;;;13.98;;
26702;SDS011;14316;51.074;3.704;2024-01-25T11:56:18;24.23;;;14.93;;
26702;SDS011;14316;51.074;3.704;2024-01-25T11:58:46;26.02;;;13.13;;
26702;SDS011;14316;51.074;3.704;2024-01-25T12:01:13;24.77;;;13.68;;
26702;SDS011;14316;51.074;3.704;2024-01-25T12:03:40;20.63;;;11.30;;
26702;SDS011;14316;51.074;3.704;2024-01-25T12:06:06;19.58;;;10.05;;
26702;SDS011;14316;51.074;3.704;2024-01-25T12:08:34;21.55;;;12.32;;
26702;SDS011;14316;51.074;3.704;2024-01-25T12:13:34;25.10;;;12.65;;
26702;SDS011;14316;51.074;3.704;2024-01-25T12:16:01;22.23;;;12.98;;
26702;SDS011;14316;51.074;3.704;2024-01-25T12:18:29;16.00;;;10.88;;
26702;SDS011;14316;51.074;3.704;2024-01-25T12:20:57;24.85;;;12.90;;
26702;SDS011;14316;51.074;3.704;2024-01-25T12:23:29;22.30;;;14.45;;
26702;SDS011;14316;51.074;3.704;2024-01-25T12:26:00;22.02;;;11.52;;
26702;SDS011;14316;51.074;3.704;2024-01-25T12:28:30;16.77;;;7.70;;
26702;SDS011;14316;51.074;3.704;2024-01-25T12:30:57;20.67;;;10.80;;
26702;SDS011;14316;51.074;3.704;2024-01-25T12:33:25;23.55;;;13.38;;
26702;SDS011;14316;51.074;3.704;2024-01-25T12:35:51;22.10;;;12.57;;
26702;SDS011;14316;51.074;3.704;2024-01-25T12:38:19;16.17;;;10.88;;
26702;SDS011;14316;51.074;3.704;2024-01-25T12:40:46;18.13;;;10.98;;
26702;SDS011;14316;51.074;3.704;2024-01-25T12:43:14;19.60;;;11.52;;
26702;SDS011;14316;51.074;3.704;2024-01-25T12:45:40;18.35;;;11.23;;
26702;SDS011;14316;51.074;3.704;2024-01-25T12:48:07;13.27;;;7.93;;
26702;SDS011;14316;51.074;3.704;2024-01-25T12:50:34;17.75;;;9.05;;
26702;SDS011;14316;51.074;3.704;2024-01-25T12:53:01;19.50;;;11.90;;
26702;SDS011;14316;51.074;3.704;2024-01-25T12:55:28;11.60;;;7.60;;
26702;SDS011;14316;51.074;3.704;2024-01-25T12:57:54;18.42;;;11.20;;
26702;SDS011;14316;51.074;3.704;2024-01-25T13:00:21;17.25;;;11.52;;
26702;SDS011;14316;51.074;3.704;2024-01-25T13:02:47;12.07;;;8.80;;
26702;SDS011;14316;51.074;3.704;2024-01-25T13:05:14;11.35;;;7.25;;
26702;SDS011;14316;51.074;3.704;2024-01-25T13:07:41;16.85;;;10.75;;
26702;SDS011;14316;51.074;3.704;2024-01-25T13:10:10;16.73;;;11.52;;
26702;SDS011;14316;51.074;3.704;2024-01-25T13:12:36;19.88;;;11.73;;
26702;SDS011;14316;51.074;3.704;2024-01-25T13:15:04;16.60;;;11.77;;
26702;SDS011;14316;51.074;3.704;2024-01-25T13:17:30;17.73;;;11.38;;
26702;SDS011;14316;51.074;3.704;2024-01-25T13:19:59;16.52;;;11.10;;
26702;SDS011;14316;51.074;3.704;2024-01-25T13:22:26;18.33;;;10.48;;
26702;SDS011;14316;51.074;3.704;2024-01-25T13:24:52;17.67;;;11.90;;
26702;SDS011;14316;51.074;3.704;2024-01-25T13:27:18;16.42;;;13.10;;
26702;SDS011;14316;51.074;3.704;2024-01-25T13:29:44;19.80;;;12.60;;
26702;SDS011;14316;51.074;3.704;2024-01-25T13:32:10;14.30;;;8.93;;
26702;SDS011;14316;51.074;3.704;2024-01-25T13:34:36;16.05;;;12.60;;
26702;SDS011;14316;51.074;3.704;2024-01-25T13:37:02;20.50;;;13.93;;
26702;SDS011;14316;51.074;3.704;2024-01-25T13:39:28;18.83;;;12.25;;
26702;SDS011;14316;51.074;3.704;2024-01-25T13:41:54;15.43;;;12.77;;
26702;SDS011;14316;51.074;3.704;2024-01-25T13:44:21;14.65;;;11.88;;
26702;SDS011;14316;51.074;3.704;2024-01-25T13:46:47;16.85;;;11.10;;
26702;SDS011;14316;51.074;3.704;2024-01-25T13:49:13;20.17;;;14.73;;
26702;SDS011;14316;51.074;3.704;2024-01-25T13:51:39;17.45;;;13.30;;
26702;SDS011;14316;51.074;3.704;2024-01-25T13:54:05;12.55;;;8.23;;
26702;SDS011;14316;51.074;3.704;2024-01-25T13:56:31;24.75;;;16.10;;
26702;SDS011;14316;51.074;3.704;2024-01-25T13:58:57;23.95;;;17.63;;
26702;SDS011;14316;51.074;3.704;2024-01-25T14:01:23;24.27;;;16.65;;
26702;SDS011;14316;51.074;3.704;2024-01-25T14:03:49;22.63;;;16.33;;
26702;SDS011;14316;51.074;3.704;2024-01-25T14:06:15;25.95;;;17.17;;
26702;SDS011;14316;51.074;3.704;2024-01-25T14:08:41;33.92;;;16.50;;
26702;SDS011;14316;51.074;3.704;2024-01-25T14:11:08;31.73;;;18.95;;
26702;SDS011;14316;51.074;3.704;2024-01-25T14:13:35;25.85;;;17.85;;
26702;SDS011;14316;51.074;3.704;2024-01-25T14:16:01;29.15;;;16.27;;
26702;SDS011;14316;51.074;3.704;2024-01-25T14:18:27;33.10;;;21.77;;
26702;SDS011;14316;51.074;3.704;2024-01-25T14:20:56;26.52;;;17.27;;
26702;SDS011;14316;51.074;3.704;2024-01-25T14:23:22;24.65;;;15.02;;